Weather History for KEFK - May, 2013

Change the Weather History Date:

Monday, May 13, 2013

  Actual Average Record
Temperature  
Mean Temperature 40 °F -  
Max Temperature 45 °F 65 °F 83 °F (1985)
Min Temperature 35 °F 42 °F 28 °F (1933)
Degree Days  
Heating Degree Days 25    
Moisture  
Dew Point 26 °F    
Average Humidity 57    
Maximum Humidity 80    
Minimum Humidity 44    
Precipitation  
Precipitation 0.00 in - - ()
Sea Level Pressure  
Sea Level Pressure 29.85 in    
Wind  
Wind Speed 10 mph (SW)    
Max Wind Speed 20 mph    
Max Gust Speed 30 mph    
Visibility 10 miles    
Events Rain    
Averages and records for this station are not official NWS values.
T = Trace of Precipitation, MM = Missing Value Source: NWS Daily Summary

Daily Weather History Graph

Daily Weather History Graph

Search for Another Location

Airport or City:

Trip Planner

Search our weather history database for the weather conditions in past years. The results will help you decide how hot, cold, wet, or windy it might be!

Date:

Astronomy

May. 13, 2013 Rise Set
Actual Time 5:22 AM EDT 8:08 PM EDT
Civil Twilight 4:48 AM EDT 8:42 PM EDT
Nautical Twilight 4:05 AM EDT 9:26 PM EDT
Astronomical Twilight 3:15 AM EDT 10:16 PM EDT
Moon 8:04 AM EDT (5/13) 11:16 PM EDT (5/13)
Length of Visible Light 15h 54m
Length of Day
14h 46m
Waxing Crescent, 12% of the Moon is Illuminated
May 13
Waxing Crescent
May 18
First Quarter
May 25
Full
May 31
Last Quarter
Jun 8
New

Hourly Weather History & Observations

Time (EDT) Temp. Windchill Dew Point Humidity Pressure Visibility Wind Dir Wind Speed Gust Speed Precip Events Conditions
12:15 AM 40.1 °F 33.2 °F 23.9 °F 52% 29.72 in 10.0 mi SW 11.5 mph - N/A   Clear
12:35 AM 39.6 °F 34.0 °F 23.5 °F 53% 29.71 in 10.0 mi SSW 8.1 mph - N/A   Clear
12:55 AM 39.4 °F 35.2 °F 23.5 °F 53% 29.71 in 10.0 mi SW 5.8 mph 16.1 mph N/A   Clear
1:15 AM 39.2 °F 35.9 °F 25.0 °F 57% 29.71 in 10.0 mi South 4.6 mph - N/A   Scattered Clouds
1:35 AM 38.7 °F 32.4 °F 26.1 °F 61% 29.71 in 10.0 mi SSW 9.2 mph - N/A   Scattered Clouds
1:55 AM 39.4 °F 33.8 °F 25.9 °F 58% 29.71 in 10.0 mi SW 8.1 mph 23.0 mph N/A   Mostly Cloudy
2:15 AM 38.8 °F 30.8 °F 28.2 °F 66% 29.72 in 10.0 mi West 13.8 mph 25.3 mph N/A Rain Rain
2:35 AM 36.1 °F 28.7 °F 30.6 °F 80% 29.72 in 10.0 mi WSW 10.4 mph - N/A   Mostly Cloudy
2:55 AM 36.9 °F 29.6 °F 29.8 °F 76% 29.73 in 10.0 mi WSW 10.4 mph 18.4 mph N/A   Overcast
3:15 AM 37.0 °F 31.6 °F 28.8 °F 72% 29.73 in 10.0 mi SW 6.9 mph - N/A   Overcast
3:35 AM 35.6 °F 29.9 °F 27.7 °F 73% 29.73 in 10.0 mi SSW 6.9 mph - N/A   Scattered Clouds
3:55 AM 36.3 °F 28.4 °F 25.5 °F 65% 29.73 in 10.0 mi SW 11.5 mph - N/A   Scattered Clouds
4:15 AM 37.4 °F 31.4 °F 22.6 °F 55% 29.73 in 10.0 mi SW 8.1 mph 18.4 mph N/A   Mostly Cloudy
4:35 AM 37.4 °F 29.8 °F 21.9 °F 54% 29.74 in 10.0 mi SW 11.5 mph 18.4 mph N/A   Overcast
4:55 AM 37.2 °F 30.6 °F 21.9 °F 54% 29.75 in 10.0 mi SW 9.2 mph 18.4 mph N/A   Overcast
5:15 AM 37.4 °F 30.8 °F 22.1 °F 54% 29.75 in 10.0 mi SW 9.2 mph - N/A   Overcast
5:35 AM 37.4 °F 32.1 °F 22.3 °F 54% 29.75 in 10.0 mi SSW 6.9 mph 17.3 mph N/A   Overcast
5:55 AM 37.6 °F 32.3 °F 22.6 °F 55% 29.75 in 10.0 mi SSW 6.9 mph 16.1 mph N/A   Overcast
6:15 AM 37.8 °F 30.7 °F 22.5 °F 54% 29.76 in 10.0 mi SW 10.4 mph 16.1 mph N/A   Overcast
6:35 AM 36.9 °F 29.6 °F 22.3 °F 56% 29.77 in 10.0 mi SW 10.4 mph 16.1 mph N/A   Mostly Cloudy
6:55 AM 38.3 °F 30.5 °F 23.2 °F 55% 29.77 in 10.0 mi SW 12.7 mph 21.9 mph N/A   Mostly Cloudy
7:15 AM 38.3 °F 31.4 °F 23.5 °F 55% 29.78 in 10.0 mi SSW 10.4 mph - N/A   Overcast
7:35 AM 38.3 °F 33.9 °F 24.1 °F 57% 29.79 in 10.0 mi SW 5.8 mph - N/A   Overcast
7:55 AM 38.5 °F 30.3 °F 22.3 °F 52% 29.80 in 10.0 mi West 13.8 mph 20.7 mph N/A   Overcast
8:15 AM 38.8 °F 30.0 °F 23.4 °F 54% 29.80 in 10.0 mi SW 16.1 mph 21.9 mph N/A   Overcast
8:35 AM 39.2 °F 32.5 °F 24.4 °F 56% 29.80 in 10.0 mi SW 10.4 mph 23.0 mph N/A   Overcast
8:55 AM 39.7 °F 31.2 °F 24.4 °F 54% 29.81 in 10.0 mi SSW 16.1 mph 23.0 mph N/A   Overcast
9:15 AM 39.9 °F 32.5 °F 23.7 °F 52% 29.82 in 10.0 mi SW 12.7 mph 21.9 mph N/A   Overcast
9:35 AM 40.1 °F 31.3 °F 23.7 °F 52% 29.82 in 10.0 mi SW 17.3 mph 29.9 mph N/A   Overcast
9:55 AM 40.3 °F 32.2 °F 24.8 °F 54% 29.83 in 10.0 mi SW 15.0 mph 25.3 mph N/A   Overcast
10:15 AM 41.7 °F 35.2 °F 25.0 °F 52% 29.83 in 10.0 mi SW 11.5 mph 25.3 mph N/A   Overcast
10:35 AM 41.0 °F 34.7 °F 24.6 °F 52% 29.84 in 10.0 mi SW 10.4 mph 17.3 mph N/A   Overcast
10:55 AM 41.2 °F 33.4 °F 24.3 °F 51% 29.85 in 10.0 mi WSW 15.0 mph 24.2 mph N/A   Overcast
11:15 AM 41.2 °F 32.4 °F 25.5 °F 54% 29.86 in 10.0 mi SW 18.4 mph 25.3 mph N/A   Overcast
11:35 AM 41.9 °F 33.1 °F 25.9 °F 53% 29.86 in 10.0 mi SW 19.6 mph 25.3 mph N/A   Overcast
11:55 AM 41.9 °F 34.0 °F 24.4 °F 50% 29.87 in 10.0 mi WSW 16.1 mph 25.3 mph N/A   Overcast
12:15 PM 41.9 °F 35.9 °F 25.5 °F 52% 29.87 in 10.0 mi WSW 10.4 mph 16.1 mph N/A   Overcast
12:35 PM 43.2 °F 37.4 °F 25.5 °F 50% 29.87 in 10.0 mi West 10.4 mph 18.4 mph N/A   Overcast
12:55 PM 42.3 °F 35.9 °F 25.7 °F 52% 29.88 in 10.0 mi West 11.5 mph 18.4 mph N/A   Overcast
1:15 PM 43.0 °F 36.0 °F 25.5 °F 50% 29.89 in 10.0 mi SW 13.8 mph 19.6 mph N/A   Overcast
1:35 PM 42.8 °F 35.1 °F 24.4 °F 48% 29.90 in 10.0 mi WSW 16.1 mph 25.3 mph N/A   Overcast
1:55 PM 43.7 °F 37.7 °F 25.3 °F 48% 29.90 in 10.0 mi SSW 11.5 mph 20.7 mph N/A   Overcast
2:15 PM 44.2 °F 38.0 °F 24.6 °F 46% 29.90 in 10.0 mi SW 12.7 mph 18.4 mph N/A   Overcast
2:35 PM 44.8 °F 37.7 °F 24.4 °F 45% 29.90 in 10.0 mi West 16.1 mph 23.0 mph N/A   Overcast
2:55 PM 45.7 °F 39.5 °F 26.4 °F 47% 29.90 in 10.0 mi WSW 13.8 mph - N/A   Overcast
3:15 PM 44.4 °F 36.9 °F 24.3 °F 45% 29.91 in 10.0 mi WSW 17.3 mph 24.2 mph N/A   Overcast
3:35 PM 45.0 °F 37.6 °F 23.9 °F 44% 29.91 in 10.0 mi West 17.3 mph 24.2 mph N/A   Overcast
4:35 PM 45.5 °F 41.3 °F 27.1 °F 49% 29.92 in 10.0 mi West 8.1 mph - N/A   Overcast
4:55 PM 45.5 °F 39.6 °F 25.2 °F 45% 29.92 in 10.0 mi SW 12.7 mph 19.6 mph N/A   Overcast
5:15 PM 44.8 °F 41.0 °F 25.0 °F 46% 29.92 in 10.0 mi SW 6.9 mph 17.3 mph N/A   Mostly Cloudy
5:35 PM 45.5 °F 40.8 °F 25.5 °F 46% 29.92 in 10.0 mi SW 9.2 mph - N/A   Mostly Cloudy
5:55 PM 44.8 °F 38.7 °F 24.8 °F 46% 29.93 in 10.0 mi West 12.7 mph 19.6 mph N/A   Mostly Cloudy
6:15 PM 44.6 °F 40.7 °F 26.2 °F 49% 29.93 in 10.0 mi WSW 6.9 mph - N/A   Overcast
6:35 PM 43.9 °F 37.9 °F 26.8 °F 51% 29.94 in 10.0 mi SSW 11.5 mph - N/A   Overcast
6:55 PM 42.8 °F 37.0 °F 27.9 °F 56% 29.94 in 10.0 mi SW 10.4 mph - N/A   Mostly Cloudy
7:35 PM 41.7 °F 35.2 °F 30.2 °F 64% 29.96 in 10.0 mi West 11.5 mph 17.3 mph N/A   Light Drizzle
8:15 PM 38.1 °F 35.7 °F 30.7 °F 75% 29.96 in 10.0 mi SW 3.5 mph - N/A   Scattered Clouds
8:35 PM 36.3 °F - 30.4 °F 79% 29.97 in 10.0 mi Calm Calm - N/A   Scattered Clouds
8:55 PM 36.9 °F 33.1 °F 30.2 °F 77% 29.97 in 10.0 mi SW 4.6 mph - N/A   Clear
9:15 PM 38.5 °F 35.0 °F 30.7 °F 74% 29.98 in 10.0 mi WSW 4.6 mph - N/A   Scattered Clouds
9:35 PM 40.1 °F 36.1 °F 31.1 °F 70% 29.98 in 10.0 mi WSW 5.8 mph - N/A   Overcast
9:55 PM 40.5 °F 38.4 °F 31.1 °F 69% 30.00 in 10.0 mi West 3.5 mph - N/A   Light Drizzle
10:15 PM 40.5 °F 38.4 °F 31.3 °F 70% 30.00 in 10.0 mi WSW 3.5 mph - N/A   Overcast
10:35 PM 40.5 °F 35.8 °F 30.9 °F 69% 30.01 in 10.0 mi West 6.9 mph - N/A   Mostly Cloudy
10:55 PM 38.8 °F 36.5 °F 29.5 °F 69% 30.02 in 10.0 mi West 3.5 mph - N/A   Scattered Clouds
11:15 PM 39.2 °F - 28.0 °F 64% 30.02 in 10.0 mi Calm Calm - N/A   Clear
11:35 PM 36.7 °F - 28.6 °F 72% 30.03 in 10.0 mi Calm Calm - N/A   Scattered Clouds
11:55 PM 36.5 °F - 29.7 °F 76% 30.03 in 10.0 mi Calm Calm - N/A   Scattered Clouds